createdAt,value
2022-11-27T00:01:29.847Z,102610.25
2022-11-27T00:03:57.515Z,102610.41
2022-11-27T00:06:29.195Z,102617.47
2022-11-27T00:08:57.093Z,102602.75
2022-11-27T00:11:27.788Z,102612.31
2022-11-27T00:13:55.432Z,102602.59
2022-11-27T00:16:24.390Z,102598.00
2022-11-27T00:18:51.611Z,102601.63
2022-11-27T00:21:22.703Z,102603.56
2022-11-27T00:23:52.919Z,102607.16
2022-11-27T00:26:20.668Z,102599.25
2022-11-27T00:28:48.513Z,102606.91
2022-11-27T00:31:18.496Z,102605.81
2022-11-27T00:33:46.235Z,102604.69
2022-11-27T00:36:14.768Z,102603.28
2022-11-27T00:38:42.570Z,102599.94
2022-11-27T00:41:17.207Z,102599.94
2022-11-27T00:43:45.535Z,102592.72
2022-11-27T00:46:13.710Z,102599.00
2022-11-27T00:48:41.437Z,102600.63
2022-11-27T00:51:11.655Z,102591.09
2022-11-27T00:53:38.704Z,102590.09
2022-11-27T00:56:06.643Z,102589.41
2022-11-27T00:58:35.219Z,102589.13
2022-11-27T01:01:05.543Z,102590.53
2022-11-27T01:03:34.281Z,102587.47
2022-11-27T01:06:04.187Z,102585.53
2022-11-27T01:08:31.549Z,102580.53
2022-11-27T01:10:59.733Z,102580.53
2022-11-27T01:13:29.404Z,102585.53
2022-11-27T01:16:02.848Z,102584.41
2022-11-27T01:18:30.387Z,102586.91
2022-11-27T01:20:57.831Z,102574.13
2022-11-27T01:23:25.335Z,102575.53
2022-11-27T01:25:53.728Z,102583.28
2022-11-27T01:28:22.331Z,102576.22
2022-11-27T01:30:50.535Z,102571.09
2022-11-27T01:33:19.463Z,102573.47
2022-11-27T01:35:56.213Z,102568.75
2022-11-27T01:38:24.640Z,102568.03
2022-11-27T01:40:57.942Z,102559.88
2022-11-27T01:43:40.164Z,102570.00
2022-11-27T01:46:25.398Z,102567.19
2022-11-27T01:48:59.696Z,102562.75
2022-11-27T01:51:27.043Z,102558.03
2022-11-27T01:53:54.936Z,102549.69
2022-11-27T01:56:24.754Z,102549.13
2022-11-27T01:58:52.616Z,102549.09
2022-11-27T02:01:19.683Z,102547.16
2022-11-27T02:03:46.755Z,102545.50
2022-11-27T02:06:15.145Z,102540.50
2022-11-27T02:08:43.048Z,102537.69
2022-11-27T02:11:17.423Z,102540.31
2022-11-27T02:13:51.046Z,102542.44
2022-11-27T02:16:29.808Z,102532.59
2022-11-27T02:19:07.367Z,102528.56
2022-11-27T02:21:44.417Z,102529.97
2022-11-27T02:24:46.986Z,102517.72
2022-11-27T02:27:47.315Z,102514.94
2022-11-27T02:30:16.037Z,102519.53
2022-11-27T02:32:56.091Z,102521.03
2022-11-27T02:35:31.729Z,102517.97
2022-11-27T02:38:06.396Z,102514.88
2022-11-27T02:40:41.333Z,102512.25
2022-11-27T02:43:12.912Z,102511.25
2022-11-27T02:45:45.126Z,102515.16
2022-11-27T02:48:16.031Z,102516.53
2022-11-27T02:50:46.724Z,102514.63
2022-11-27T02:53:20.810Z,102509.38
2022-11-27T02:55:52.011Z,102507.81
2022-11-27T02:58:25.011Z,102506.00
2022-11-27T03:00:54.795Z,102514.63
2022-11-27T03:03:26.507Z,102519.75
2022-11-27T03:06:02.504Z,102519.31
2022-11-27T03:08:41.651Z,102515.94
2022-11-27T03:11:11.341Z,102511.97
2022-11-27T03:13:42.684Z,102514.13
2022-11-27T03:16:20.712Z,102512.41
2022-11-27T03:18:58.693Z,102508.47
2022-11-27T03:21:34.313Z,102509.41
2022-11-27T03:24:01.606Z,102511.59
2022-11-27T03:26:29.044Z,102512.91
2022-11-27T03:28:59.995Z,102518.06
2022-11-27T03:31:28.915Z,102511.66
2022-11-27T03:33:56.541Z,102511.50
2022-11-27T03:36:24.786Z,102517.63
2022-11-27T03:38:55.585Z,102520.06
2022-11-27T03:41:38.748Z,102510.50
2022-11-27T03:44:22.119Z,102512.03
2022-11-27T03:47:10.514Z,102500.19
2022-11-27T03:49:56.956Z,102485.56
2022-11-27T03:52:44.891Z,102491.72
2022-11-27T03:55:23.973Z,102490.41
2022-11-27T03:58:00.306Z,102491.22
2022-11-27T04:00:32.905Z,102482.63
2022-11-27T04:03:03.283Z,102480.72
2022-11-27T04:05:30.700Z,102478.78
2022-11-27T04:07:57.950Z,102480.47
2022-11-27T04:10:24.982Z,102476.97
2022-11-27T04:12:51.980Z,102485.44
2022-11-27T04:15:18.946Z,102481.72
2022-11-27T04:17:46.153Z,102483.66
2022-11-27T04:20:15.443Z,102488.22
2022-11-27T04:22:42.413Z,102476.53
2022-11-27T04:25:09.919Z,102470.69
2022-11-27T04:27:36.855Z,102468.34
2022-11-27T04:30:05.236Z,102458.97
2022-11-27T04:32:32.208Z,102458.56
2022-11-27T04:34:59.139Z,102461.44
2022-11-27T04:37:27.420Z,102449.75
2022-11-27T04:39:54.354Z,102454.41
2022-11-27T04:42:21.373Z,102449.44
2022-11-27T04:44:48.293Z,102448.59
2022-11-27T04:47:16.377Z,102434.75
2022-11-27T04:49:43.350Z,102426.03
2022-11-27T04:52:13.725Z,102423.06
2022-11-27T04:54:42.237Z,102438.84
2022-11-27T04:57:09.490Z,102430.97
2022-11-27T04:59:36.524Z,102434.31
2022-11-27T05:02:03.629Z,102433.38
2022-11-27T05:04:30.897Z,102425.50
2022-11-27T05:06:57.911Z,102425.50
2022-11-27T05:09:25.072Z,102428.38
2022-11-27T05:11:53.314Z,102422.53
2022-11-27T05:14:22.423Z,102417.41
2022-11-27T05:16:52.547Z,102412.53
2022-11-27T05:19:21.945Z,102412.19
2022-11-27T05:21:50.083Z,102391.41
2022-11-27T05:24:19.825Z,102380.22
2022-11-27T05:26:47.627Z,102381.88
2022-11-27T05:29:16.452Z,102383.28
2022-11-27T05:31:43.692Z,102386.16
2022-11-27T05:34:11.379Z,102386.06
2022-11-27T05:36:39.570Z,102390.97
2022-11-27T05:39:08.561Z,102398.53
2022-11-27T05:41:37.532Z,102395.56
2022-11-27T05:44:05.652Z,102390.56
2022-11-27T05:46:34.245Z,102390.00
2022-11-27T05:49:01.360Z,102388.06
2022-11-27T05:51:28.450Z,102388.91
2022-11-27T05:53:55.452Z,102387.22
2022-11-27T05:56:22.429Z,102380.03
2022-11-27T05:58:51.150Z,102381.03
2022-11-27T06:01:19.275Z,102370.53
2022-11-27T06:03:49.923Z,102370.53
2022-11-27T06:06:19.780Z,102360.03
2022-11-27T06:08:47.985Z,102351.44
2022-11-27T06:11:17.621Z,102355.53
2022-11-27T06:13:45.961Z,102367.97
2022-11-27T06:16:15.796Z,102371.81
2022-11-27T06:18:43.210Z,102371.81
2022-11-27T06:21:14.480Z,102366.09
2022-11-27T06:23:43.105Z,102356.75
2022-11-27T06:26:16.720Z,102352.63
2022-11-27T06:28:43.885Z,102357.50
2022-11-27T06:31:17.705Z,102355.00
2022-11-27T06:33:46.064Z,102351.41
2022-11-27T06:36:14.451Z,102351.56
2022-11-27T06:38:41.832Z,102346.06
2022-11-27T06:41:11.761Z,102340.56
2022-11-27T06:43:39.226Z,102332.69
2022-11-27T06:46:11.272Z,102332.69
2022-11-27T06:48:38.301Z,102328.63
2022-11-27T06:51:08.023Z,102325.78
2022-11-27T06:53:38.529Z,102320.28
2022-11-27T06:56:08.997Z,102315.88
2022-11-27T06:58:36.907Z,102317.75
2022-11-27T07:01:08.627Z,102313.84
2022-11-27T07:03:35.784Z,102324.09
2022-11-27T07:06:05.464Z,102329.34
2022-11-27T07:08:33.435Z,102319.47
2022-11-27T07:11:04.791Z,102335.09
2022-11-27T07:13:32.645Z,102328.91
2022-11-27T07:16:01.639Z,102332.97
2022-11-27T07:18:29.323Z,102328.56
2022-11-27T07:20:57.075Z,102328.81
2022-11-27T07:23:24.307Z,102333.81
2022-11-27T07:25:51.367Z,102325.56
2022-11-27T07:28:19.755Z,102321.50
2022-11-27T07:30:54.713Z,102321.72
2022-11-27T07:33:21.915Z,102324.69
2022-11-27T07:35:49.085Z,102319.31
2022-11-27T07:38:16.334Z,102316.69
2022-11-27T07:40:43.246Z,102326.00
2022-11-27T07:43:10.188Z,102326.47
2022-11-27T07:45:38.661Z,102329.28
2022-11-27T07:48:06.158Z,102325.31
2022-11-27T07:50:33.205Z,102325.78
2022-11-27T07:53:00.132Z,102317.53
2022-11-27T07:55:27.112Z,102320.59
2022-11-27T07:57:54.143Z,102331.69
2022-11-27T08:00:21.956Z,102320.22
2022-11-27T08:02:50.299Z,102318.44
2022-11-27T08:05:17.470Z,102315.22
2022-11-27T08:07:44.428Z,102312.59
2022-11-27T08:10:11.562Z,102301.94
2022-11-27T08:12:38.591Z,102298.22
2022-11-27T08:15:07.280Z,102297.72
2022-11-27T08:17:34.462Z,102303.44
2022-11-27T08:20:04.071Z,102298.56
2022-11-27T08:22:31.108Z,102294.72
2022-11-27T08:24:58.230Z,102295.16
2022-11-27T08:27:25.177Z,102281.63
2022-11-27T08:29:52.120Z,102285.09
2022-11-27T08:32:19.081Z,102287.59
2022-11-27T08:34:46.007Z,102279.84
2022-11-27T08:37:14.356Z,102273.16
2022-11-27T08:39:41.337Z,102260.09
2022-11-27T08:42:08.584Z,102263.69
2022-11-27T08:44:35.572Z,102265.34
2022-11-27T08:47:02.576Z,102269.78
2022-11-27T08:49:29.521Z,102265.31
2022-11-27T08:51:56.487Z,102272.16
2022-11-27T08:54:24.967Z,102266.63
2022-11-27T08:56:52.692Z,102269.72
2022-11-27T08:59:20.248Z,102260.63
2022-11-27T09:01:47.216Z,102250.94
2022-11-27T09:04:14.199Z,102249.84
2022-11-27T09:06:41.866Z,102242.94
2022-11-27T09:09:08.896Z,102235.50
2022-11-27T09:11:38.070Z,102227.53
2022-11-27T09:14:06.010Z,102222.44
2022-11-27T09:16:33.499Z,102222.34
2022-11-27T09:19:00.606Z,102226.75
2022-11-27T09:21:30.576Z,102227.44
2022-11-27T09:23:59.694Z,102221.50
2022-11-27T09:26:28.653Z,102218.47
2022-11-27T09:28:59.203Z,102219.59
2022-11-27T09:31:26.537Z,102206.75
2022-11-27T09:33:54.657Z,102207.78
2022-11-27T09:36:25.308Z,102219.94
2022-11-27T09:38:53.240Z,102226.63
2022-11-27T09:41:44.235Z,102226.03
2022-11-27T09:44:25.606Z,102231.28
2022-11-27T09:46:56.335Z,102228.84
2022-11-27T09:49:29.011Z,102230.78
2022-11-27T09:52:03.920Z,102232.84
2022-11-27T09:54:38.733Z,102237.97
2022-11-27T09:57:07.360Z,102226.91
2022-11-27T09:59:45.789Z,102216.13
2022-11-27T10:02:19.527Z,102216.41
2022-11-27T10:05:12.466Z,102212.84
2022-11-27T10:07:47.096Z,102218.53
2022-11-27T10:10:36.232Z,102223.97
2022-11-27T10:13:18.373Z,102221.19
2022-11-27T10:15:55.666Z,102213.72
2022-11-27T10:18:35.543Z,102207.09
2022-11-27T10:21:13.036Z,102212.53
2022-11-27T10:23:53.959Z,102205.00
2022-11-27T10:26:29.090Z,102208.06
2022-11-27T10:29:04.806Z,102208.38
2022-11-27T10:31:40.790Z,102202.38
2022-11-27T10:34:25.970Z,102209.31
2022-11-27T10:36:56.525Z,102210.44
2022-11-27T10:39:32.189Z,102213.22
2022-11-27T10:42:10.205Z,102207.78
2022-11-27T10:44:45.894Z,102204.03
2022-11-27T10:47:15.715Z,102193.22
2022-11-27T10:49:44.280Z,102194.00
2022-11-27T10:52:15.771Z,102191.75
2022-11-27T10:54:46.869Z,102192.84
2022-11-27T10:57:43.895Z,102189.25
2022-11-27T11:00:25.533Z,102182.03
2022-11-27T11:03:03.004Z,102179.25
2022-11-27T11:05:41.352Z,102170.66
2022-11-27T11:08:20.350Z,102174.53
2022-11-27T11:10:53.454Z,102170.38
2022-11-27T11:13:23.510Z,102173.16
2022-11-27T11:15:55.269Z,102165.59
2022-11-27T11:18:26.930Z,102159.50
2022-11-27T11:20:57.662Z,102158.63
2022-11-27T11:23:30.803Z,102151.38
2022-11-27T11:26:04.091Z,102146.94
2022-11-27T11:28:39.347Z,102150.81
2022-11-27T11:31:16.710Z,102150.53
2022-11-27T11:33:55.200Z,102139.53
2022-11-27T11:36:22.637Z,102127.84
2022-11-27T11:38:51.462Z,102129.22
2022-11-27T11:41:20.085Z,102123.50
2022-11-27T11:43:57.447Z,102115.00
2022-11-27T11:46:28.490Z,102120.03
2022-11-27T11:49:01.857Z,102111.38
2022-11-27T11:51:57.388Z,102110.78
2022-11-27T11:54:50.346Z,102114.38
2022-11-27T11:57:41.015Z,102114.69
2022-11-27T12:00:14.581Z,102108.72
2022-11-27T12:03:13.763Z,102100.13
2022-11-27T12:06:06.263Z,102090.53
2022-11-27T12:08:53.992Z,102096.16
2022-11-27T12:11:30.607Z,102094.88
2022-11-27T12:14:14.166Z,102089.75
2022-11-27T12:16:59.006Z,102085.59
2022-11-27T12:20:01.686Z,102072.53
2022-11-27T12:23:06.386Z,102077.34
2022-11-27T12:25:39.228Z,102072.31
2022-11-27T12:28:31.699Z,102071.03
2022-11-27T12:31:11.788Z,102065.59
2022-11-27T12:33:57.609Z,102064.81
2022-11-27T12:36:57.677Z,102059.25
2022-11-27T12:39:33.778Z,102054.19
2022-11-27T12:42:21.880Z,102052.06
2022-11-27T12:44:57.718Z,102045.50
2022-11-27T12:47:38.895Z,102040.72
2022-11-27T12:50:17.628Z,102030.16
2022-11-27T12:52:57.056Z,102033.78
2022-11-27T12:55:30.722Z,102034.75
2022-11-27T12:58:06.049Z,102030.47
2022-11-27T13:00:41.082Z,102025.41
2022-11-27T13:03:18.388Z,102022.94
2022-11-27T13:05:53.332Z,102014.00
2022-11-27T13:08:29.125Z,102017.84
2022-11-27T13:11:04.882Z,102022.66
2022-11-27T13:13:37.534Z,102017.88
2022-11-27T13:16:11.142Z,102012.28
2022-11-27T13:18:44.746Z,102000.56
2022-11-27T13:21:17.483Z,102004.03
2022-11-27T13:23:44.533Z,102004.34
2022-11-27T13:26:25.974Z,101998.22
2022-11-27T13:28:58.127Z,102006.13
2022-11-27T13:31:32.127Z,101991.91
2022-11-27T13:34:05.258Z,101986.97
2022-11-27T13:36:38.943Z,101989.91
2022-11-27T13:39:07.156Z,101984.47
2022-11-27T13:41:40.243Z,101979.84
2022-11-27T13:44:24.687Z,101966.50
2022-11-27T13:46:56.944Z,101969.47
2022-11-27T13:49:28.797Z,101963.16
2022-11-27T13:52:08.286Z,101967.41
2022-11-27T13:54:35.423Z,101962.44
2022-11-27T13:57:17.069Z,101967.22
2022-11-27T13:59:57.712Z,101966.38
2022-11-27T14:02:26.303Z,101961.59
2022-11-27T14:04:56.346Z,101957.16
2022-11-27T14:07:36.348Z,101954.84
2022-11-27T14:10:11.757Z,101957.00
2022-11-27T14:12:42.562Z,101939.84
2022-11-27T14:15:23.388Z,101944.66
2022-11-27T14:17:53.946Z,101935.78
2022-11-27T14:20:28.621Z,101929.78
2022-11-27T14:23:12.262Z,101930.13
2022-11-27T14:25:40.403Z,101915.56
2022-11-27T14:28:16.553Z,101905.59
2022-11-27T14:30:49.170Z,101901.97
2022-11-27T14:33:19.156Z,101896.06
2022-11-27T14:35:49.786Z,101899.06
2022-11-27T14:38:17.070Z,101891.00
2022-11-27T14:40:44.737Z,101902.06
2022-11-27T14:43:17.038Z,101903.72
2022-11-27T14:45:47.399Z,101897.28
2022-11-27T14:48:22.493Z,101880.31
2022-11-27T14:50:52.389Z,101878.75
2022-11-27T14:53:23.622Z,101867.00
2022-11-27T14:55:56.431Z,101857.59
2022-11-27T14:58:28.191Z,101857.47
2022-11-27T15:01:00.767Z,101850.84
2022-11-27T15:03:28.411Z,101858.06
2022-11-27T15:05:58.964Z,101856.13
2022-11-27T15:08:27.075Z,101855.78
2022-11-27T15:10:57.485Z,101846.22
2022-11-27T15:13:29.090Z,101845.22
2022-11-27T15:16:03.729Z,101844.88
2022-11-27T15:18:33.776Z,101851.47
2022-11-27T15:21:08.470Z,101843.53
2022-11-27T15:23:36.311Z,101836.97
2022-11-27T15:26:16.926Z,101829.38
2022-11-27T15:28:56.966Z,101830.41
2022-11-27T15:31:29.250Z,101833.69
2022-11-27T15:34:01.121Z,101827.88
2022-11-27T15:36:38.216Z,101822.25
2022-11-27T15:39:21.985Z,101817.47
2022-11-27T15:41:56.025Z,101821.25
2022-11-27T15:44:27.209Z,101808.88
2022-11-27T15:46:57.357Z,101811.22
2022-11-27T15:49:24.569Z,101814.50
2022-11-27T15:51:52.625Z,101809.22
2022-11-27T15:54:19.890Z,101798.84
2022-11-27T15:56:47.804Z,101797.34
2022-11-27T15:59:15.856Z,101795.69
2022-11-27T16:01:44.336Z,101791.03
2022-11-27T16:04:11.346Z,101783.78
2022-11-27T16:06:38.736Z,101775.56
2022-11-27T16:09:07.039Z,101770.94
2022-11-27T16:11:34.103Z,101757.59
2022-11-27T16:14:01.099Z,101758.41
2022-11-27T16:16:28.166Z,101743.25
2022-11-27T16:18:59.743Z,101739.28
2022-11-27T16:21:29.935Z,101731.00
2022-11-27T16:23:59.295Z,101726.72
2022-11-27T16:26:27.770Z,101720.44
2022-11-27T16:28:55.333Z,101710.56
2022-11-27T16:31:24.768Z,101718.81
2022-11-27T16:33:52.571Z,101722.78
2022-11-27T16:36:23.101Z,101730.03
2022-11-27T16:38:54.101Z,101724.75
2022-11-27T16:41:25.925Z,101728.38
2022-11-27T16:43:56.785Z,101727.72
2022-11-27T16:46:26.991Z,101756.22
2022-11-27T16:48:56.071Z,101753.75
2022-11-27T16:51:32.175Z,101756.88
2022-11-27T16:54:02.602Z,101755.75
2022-11-27T16:56:32.098Z,101749.47
2022-11-27T16:59:03.195Z,101748.47
2022-11-27T17:01:34.583Z,101750.16
2022-11-27T17:04:03.541Z,101738.94
2022-11-27T17:06:35.934Z,101738.13
2022-11-27T17:09:06.139Z,101729.03
2022-11-27T17:11:36.082Z,101724.06
2022-11-27T17:14:07.632Z,101723.41
2022-11-27T17:16:35.971Z,101727.34
2022-11-27T17:19:03.730Z,101720.75
2022-11-27T17:21:34.752Z,101720.75
2022-11-27T17:24:05.085Z,101723.25
2022-11-27T17:26:38.468Z,101715.47
2022-11-27T17:29:05.481Z,101718.28
2022-11-27T17:31:35.363Z,101706.91
2022-11-27T17:34:03.694Z,101705.94
2022-11-27T17:36:37.072Z,101707.44
2022-11-27T17:39:06.324Z,101696.53
2022-11-27T17:41:34.153Z,101703.97
2022-11-27T17:44:04.436Z,101697.53
2022-11-27T17:46:32.507Z,101694.41
2022-11-27T17:49:04.517Z,101700.03
2022-11-27T17:51:35.513Z,101698.72
2022-11-27T17:54:05.202Z,101689.50
2022-11-27T17:56:33.442Z,101698.06
2022-11-27T17:59:00.644Z,101698.25
2022-11-27T18:01:30.083Z,101681.41
2022-11-27T18:04:00.781Z,101673.63
2022-11-27T18:06:27.989Z,101679.84
2022-11-27T18:08:58.082Z,101668.28
2022-11-27T18:11:36.282Z,101665.97
2022-11-27T18:14:03.976Z,101661.53
2022-11-27T18:16:34.822Z,101660.69
2022-11-27T18:19:21.422Z,101659.38
2022-11-27T18:21:48.556Z,101644.22
2022-11-27T18:24:25.081Z,101645.19
2022-11-27T18:27:10.130Z,101640.59
2022-11-27T18:29:39.696Z,101625.91
2022-11-27T18:32:07.472Z,101626.75
2022-11-27T18:34:35.119Z,101647.69
2022-11-27T18:37:02.370Z,101646.22
2022-11-27T18:39:31.532Z,101640.63
2022-11-27T18:41:58.527Z,101643.75
2022-11-27T18:44:26.699Z,101642.44
2022-11-27T18:46:53.842Z,101641.13
2022-11-27T18:49:27.283Z,101637.97
2022-11-27T18:51:54.791Z,101626.13
2022-11-27T18:54:25.383Z,101629.72
2022-11-27T18:56:54.105Z,101633.03
2022-11-27T18:59:21.221Z,101631.06
2022-11-27T19:01:48.409Z,101630.41
2022-11-27T19:04:15.725Z,101637.47
2022-11-27T19:06:43.858Z,101637.00
2022-11-27T19:09:11.427Z,101618.84
2022-11-27T19:11:39.699Z,101628.75
2022-11-27T19:14:09.565Z,101632.19
2022-11-27T19:16:41.963Z,101613.06
2022-11-27T19:19:50.254Z,101610.91
2022-11-27T19:22:01.656Z,101612.38
2022-11-27T19:24:28.703Z,101607.94
2022-11-27T19:26:57.649Z,101600.66
2022-11-27T19:29:26.084Z,101595.69
2022-11-27T19:31:55.051Z,101595.69
2022-11-27T19:34:22.693Z,101572.28
2022-11-27T19:36:49.648Z,101579.72
2022-11-27T19:39:16.753Z,101576.06
2022-11-27T19:41:43.860Z,101597.34
2022-11-27T19:44:13.002Z,101588.63
2022-11-27T19:46:41.523Z,101590.47
2022-11-27T19:49:14.568Z,101579.25
2022-11-27T19:51:42.924Z,101582.19
2022-11-27T19:54:13.383Z,101575.28
2022-11-27T19:56:42.288Z,101560.75
2022-11-27T19:59:11.317Z,101555.47
2022-11-27T20:01:40.166Z,101551.69
2022-11-27T20:04:10.960Z,101547.56
2022-11-27T20:06:38.408Z,101553.53
2022-11-27T20:09:06.781Z,101550.88
2022-11-27T20:11:35.502Z,101550.56
2022-11-27T20:14:04.546Z,101550.56
2022-11-27T20:16:32.441Z,101562.09
2022-11-27T20:19:01.484Z,101551.19
2022-11-27T20:21:29.767Z,101555.50
2022-11-27T20:23:56.882Z,101558.97
2022-11-27T20:26:26.203Z,101554.81
2022-11-27T20:28:54.577Z,101539.50
2022-11-27T20:31:25.085Z,101542.13
2022-11-27T20:33:54.223Z,101546.28
2022-11-27T20:36:23.493Z,101548.25
2022-11-27T20:38:53.768Z,101549.88
2022-11-27T20:41:24.566Z,101551.53
2022-11-27T20:43:56.004Z,101540.16
2022-11-27T20:46:23.624Z,101532.41
2022-11-27T20:48:52.559Z,101536.03
2022-11-27T20:51:23.980Z,101531.91
2022-11-27T20:53:52.261Z,101535.34
2022-11-27T20:56:20.814Z,101528.44
2022-11-27T20:58:48.696Z,101522.19
2022-11-27T21:01:18.318Z,101519.53
2022-11-27T21:03:46.715Z,101519.84
2022-11-27T21:06:14.883Z,101507.66
2022-11-27T21:08:42.179Z,101501.72
2022-11-27T21:11:13.236Z,101507.66
2022-11-27T21:13:40.659Z,101496.28
2022-11-27T21:16:09.604Z,101504.34
2022-11-27T21:18:37.074Z,101492.16
2022-11-27T21:21:08.942Z,101492.00
2022-11-27T21:23:36.021Z,101495.47
2022-11-27T21:26:03.166Z,101494.47
2022-11-27T21:28:32.565Z,101485.88
2022-11-27T21:31:06.614Z,101478.47
2022-11-27T21:33:33.875Z,101483.44
2022-11-27T21:36:00.948Z,101476.00
2022-11-27T21:38:28.006Z,101470.41
2022-11-27T21:40:55.200Z,101468.09
2022-11-27T21:43:22.498Z,101464.28
2022-11-27T21:45:51.514Z,101470.91
2022-11-27T21:48:18.547Z,101465.44
2022-11-27T21:50:45.533Z,101465.78
2022-11-27T21:53:12.500Z,101456.88
2022-11-27T21:55:40.818Z,101450.97
2022-11-27T21:58:08.621Z,101441.69
2022-11-27T22:00:36.847Z,101446.31
2022-11-27T22:03:05.190Z,101450.13
2022-11-27T22:05:32.214Z,101439.41
2022-11-27T22:07:59.199Z,101439.41
2022-11-27T22:10:26.294Z,101442.34
2022-11-27T22:12:53.333Z,101433.13
2022-11-27T22:15:20.337Z,101426.88
2022-11-27T22:17:48.425Z,101425.56
2022-11-27T22:20:17.218Z,101420.59
2022-11-27T22:22:44.231Z,101413.88
2022-11-27T22:25:11.233Z,101411.06
2022-11-27T22:27:38.143Z,101412.38
2022-11-27T22:30:07.928Z,101412.06
2022-11-27T22:32:34.931Z,101400.66
2022-11-27T22:35:02.125Z,101397.88
2022-11-27T22:37:30.427Z,101395.38
2022-11-27T22:39:57.351Z,101387.97
2022-11-27T22:42:24.301Z,101380.72
2022-11-27T22:44:51.258Z,101391.28
2022-11-27T22:47:18.310Z,101381.38
2022-11-27T22:49:45.263Z,101384.34
2022-11-27T22:52:12.218Z,101377.75
2022-11-27T22:54:40.739Z,101369.19
2022-11-27T22:57:07.837Z,101355.00
2022-11-27T22:59:35.198Z,101346.78
2022-11-27T23:02:03.581Z,101354.84
2022-11-27T23:04:30.699Z,101342.81
2022-11-27T23:06:57.860Z,101338.84
2022-11-27T23:09:24.855Z,101339.31
2022-11-27T23:11:53.263Z,101330.94
2022-11-27T23:14:20.276Z,101333.22
2022-11-27T23:16:47.456Z,101330.59
2022-11-27T23:19:14.779Z,101326.94
2022-11-27T23:21:42.180Z,101319.53
2022-11-27T23:24:16.504Z,101317.75
2022-11-27T23:26:44.160Z,101313.44
2022-11-27T23:29:12.697Z,101321.69
2022-11-27T23:31:39.952Z,101295.69
2022-11-27T23:34:13.426Z,101304.59
2022-11-27T23:36:40.432Z,101310.19
2022-11-27T23:39:10.955Z,101304.94
2022-11-27T23:41:39.632Z,101302.44
2022-11-27T23:44:06.634Z,101291.44
2022-11-27T23:46:35.011Z,101287.47
2022-11-27T23:49:02.039Z,101289.94
2022-11-27T23:51:31.959Z,101283.34
2022-11-27T23:54:00.206Z,101279.09
2022-11-27T23:56:30.501Z,101270.00
2022-11-27T23:58:58.856Z,101262.63
